sensor_id;sensor_type;location;lat;lon;timestamp;P1;durP1;ratioP1;P2;durP2;ratioP2
67941;SDS011;54731;42.600;23.476;2023-04-24T00:01:55;7.10;;;3.83;;
67941;SDS011;54731;42.600;23.476;2023-04-24T00:04:21;4.83;;;3.63;;
67941;SDS011;54731;42.600;23.476;2023-04-24T00:06:46;10.23;;;4.50;;
67941;SDS011;54731;42.600;23.476;2023-04-24T00:09:12;9.53;;;5.27;;
67941;SDS011;54731;42.600;23.476;2023-04-24T00:11:37;5.93;;;3.57;;
67941;SDS011;54731;42.600;23.476;2023-04-24T00:14:02;9.73;;;4.17;;
67941;SDS011;54731;42.600;23.476;2023-04-24T00:16:28;8.77;;;3.33;;
67941;SDS011;54731;42.600;23.476;2023-04-24T00:18:53;8.05;;;4.20;;
67941;SDS011;54731;42.600;23.476;2023-04-24T00:21:19;9.45;;;3.38;;
67941;SDS011;54731;42.600;23.476;2023-04-24T00:23:44;8.87;;;4.63;;
67941;SDS011;54731;42.600;23.476;2023-04-24T00:26:10;7.67;;;3.50;;
67941;SDS011;54731;42.600;23.476;2023-04-24T00:28:35;7.68;;;3.60;;
67941;SDS011;54731;42.600;23.476;2023-04-24T00:31:01;11.87;;;4.07;;
67941;SDS011;54731;42.600;23.476;2023-04-24T00:33:26;5.43;;;3.70;;
67941;SDS011;54731;42.600;23.476;2023-04-24T00:35:51;5.97;;;3.73;;
67941;SDS011;54731;42.600;23.476;2023-04-24T00:38:17;7.77;;;4.63;;
67941;SDS011;54731;42.600;23.476;2023-04-24T00:40:43;7.97;;;3.90;;
67941;SDS011;54731;42.600;23.476;2023-04-24T00:43:08;8.20;;;3.73;;
67941;SDS011;54731;42.600;23.476;2023-04-24T00:45:33;5.63;;;3.47;;
67941;SDS011;54731;42.600;23.476;2023-04-24T00:47:58;4.70;;;3.93;;
67941;SDS011;54731;42.600;23.476;2023-04-24T00:50:25;11.02;;;4.30;;
67941;SDS011;54731;42.600;23.476;2023-04-24T00:52:50;6.60;;;4.10;;
67941;SDS011;54731;42.600;23.476;2023-04-24T00:55:16;4.82;;;3.70;;
67941;SDS011;54731;42.600;23.476;2023-04-24T00:57:42;7.67;;;4.97;;
67941;SDS011;54731;42.600;23.476;2023-04-24T01:00:08;7.78;;;4.28;;
67941;SDS011;54731;42.600;23.476;2023-04-24T01:02:34;8.93;;;4.10;;
67941;SDS011;54731;42.600;23.476;2023-04-24T01:05:00;9.80;;;4.20;;
67941;SDS011;54731;42.600;23.476;2023-04-24T01:07:26;8.18;;;3.40;;
67941;SDS011;54731;42.600;23.476;2023-04-24T01:09:52;7.78;;;4.40;;
67941;SDS011;54731;42.600;23.476;2023-04-24T01:12:18;7.83;;;3.67;;
67941;SDS011;54731;42.600;23.476;2023-04-24T01:14:44;5.40;;;4.00;;
67941;SDS011;54731;42.600;23.476;2023-04-24T01:17:10;4.30;;;3.80;;
67941;SDS011;54731;42.600;23.476;2023-04-24T01:19:35;7.33;;;4.20;;
67941;SDS011;54731;42.600;23.476;2023-04-24T01:22:02;6.90;;;4.00;;
67941;SDS011;54731;42.600;23.476;2023-04-24T01:24:28;7.55;;;4.18;;
67941;SDS011;54731;42.600;23.476;2023-04-24T01:26:53;6.97;;;4.60;;
67941;SDS011;54731;42.600;23.476;2023-04-24T01:29:19;7.88;;;4.63;;
67941;SDS011;54731;42.600;23.476;2023-04-24T01:31:44;5.97;;;4.23;;
67941;SDS011;54731;42.600;23.476;2023-04-24T01:34:10;8.57;;;4.20;;
67941;SDS011;54731;42.600;23.476;2023-04-24T01:36:35;8.57;;;4.40;;
67941;SDS011;54731;42.600;23.476;2023-04-24T01:39:02;7.47;;;4.40;;
67941;SDS011;54731;42.600;23.476;2023-04-24T01:41:28;5.33;;;4.43;;
67941;SDS011;54731;42.600;23.476;2023-04-24T01:43:53;8.38;;;4.53;;
67941;SDS011;54731;42.600;23.476;2023-04-24T01:46:19;6.47;;;3.97;;
67941;SDS011;54731;42.600;23.476;2023-04-24T01:48:45;8.17;;;4.30;;
67941;SDS011;54731;42.600;23.476;2023-04-24T01:51:10;7.32;;;4.32;;
67941;SDS011;54731;42.600;23.476;2023-04-24T01:53:35;10.17;;;4.50;;
67941;SDS011;54731;42.600;23.476;2023-04-24T01:56:01;6.93;;;4.37;;
67941;SDS011;54731;42.600;23.476;2023-04-24T01:58:27;5.78;;;4.18;;
67941;SDS011;54731;42.600;23.476;2023-04-24T02:00:52;7.50;;;5.60;;
67941;SDS011;54731;42.600;23.476;2023-04-24T02:03:18;6.28;;;4.95;;
67941;SDS011;54731;42.600;23.476;2023-04-24T02:05:43;9.32;;;5.20;;
67941;SDS011;54731;42.600;23.476;2023-04-24T02:08:09;9.23;;;5.67;;
67941;SDS011;54731;42.600;23.476;2023-04-24T02:10:34;11.87;;;5.37;;
67941;SDS011;54731;42.600;23.476;2023-04-24T02:13:00;9.63;;;4.90;;
67941;SDS011;54731;42.600;23.476;2023-04-24T02:15:25;6.53;;;4.85;;
67941;SDS011;54731;42.600;23.476;2023-04-24T02:17:50;7.97;;;5.43;;
67941;SDS011;54731;42.600;23.476;2023-04-24T02:20:15;8.47;;;5.40;;
67941;SDS011;54731;42.600;23.476;2023-04-24T02:22:41;10.67;;;5.30;;
67941;SDS011;54731;42.600;23.476;2023-04-24T02:25:06;6.70;;;5.20;;
67941;SDS011;54731;42.600;23.476;2023-04-24T02:27:32;8.50;;;5.93;;
67941;SDS011;54731;42.600;23.476;2023-04-24T02:29:57;9.15;;;5.05;;
67941;SDS011;54731;42.600;23.476;2023-04-24T02:32:22;10.57;;;5.77;;
67941;SDS011;54731;42.600;23.476;2023-04-24T02:34:48;9.63;;;5.50;;
67941;SDS011;54731;42.600;23.476;2023-04-24T02:37:13;13.17;;;9.87;;
67941;SDS011;54731;42.600;23.476;2023-04-24T02:39:38;10.63;;;6.13;;
67941;SDS011;54731;42.600;23.476;2023-04-24T02:42:03;7.60;;;5.70;;
67941;SDS011;54731;42.600;23.476;2023-04-24T02:44:29;9.57;;;5.13;;
67941;SDS011;54731;42.600;23.476;2023-04-24T02:46:54;12.53;;;5.50;;
67941;SDS011;54731;42.600;23.476;2023-04-24T02:49:19;8.73;;;5.37;;
67941;SDS011;54731;42.600;23.476;2023-04-24T02:51:45;9.70;;;6.85;;
67941;SDS011;54731;42.600;23.476;2023-04-24T02:54:10;9.88;;;6.18;;
67941;SDS011;54731;42.600;23.476;2023-04-24T02:56:35;9.20;;;6.53;;
67941;SDS011;54731;42.600;23.476;2023-04-24T02:59:01;11.30;;;5.27;;
67941;SDS011;54731;42.600;23.476;2023-04-24T03:01:26;12.47;;;6.00;;
67941;SDS011;54731;42.600;23.476;2023-04-24T03:03:51;11.47;;;5.57;;
67941;SDS011;54731;42.600;23.476;2023-04-24T03:06:17;8.67;;;5.27;;
67941;SDS011;54731;42.600;23.476;2023-04-24T03:08:42;9.03;;;5.87;;
67941;SDS011;54731;42.600;23.476;2023-04-24T03:11:07;9.43;;;6.40;;
67941;SDS011;54731;42.600;23.476;2023-04-24T03:13:32;9.93;;;5.83;;
67941;SDS011;54731;42.600;23.476;2023-04-24T03:15:58;8.95;;;5.68;;
67941;SDS011;54731;42.600;23.476;2023-04-24T03:18:23;9.33;;;5.00;;
67941;SDS011;54731;42.600;23.476;2023-04-24T03:20:49;8.33;;;5.80;;
67941;SDS011;54731;42.600;23.476;2023-04-24T03:23:14;10.93;;;6.30;;
67941;SDS011;54731;42.600;23.476;2023-04-24T03:25:40;10.90;;;6.47;;
67941;SDS011;54731;42.600;23.476;2023-04-24T03:28:05;8.97;;;6.53;;
67941;SDS011;54731;42.600;23.476;2023-04-24T03:30:30;10.47;;;5.73;;
67941;SDS011;54731;42.600;23.476;2023-04-24T03:32:55;6.63;;;5.93;;
67941;SDS011;54731;42.600;23.476;2023-04-24T03:35:21;10.73;;;6.90;;
67941;SDS011;54731;42.600;23.476;2023-04-24T03:37:46;8.73;;;6.17;;
67941;SDS011;54731;42.600;23.476;2023-04-24T03:40:11;9.40;;;6.37;;
67941;SDS011;54731;42.600;23.476;2023-04-24T03:42:37;9.80;;;7.50;;
67941;SDS011;54731;42.600;23.476;2023-04-24T03:45:02;13.02;;;6.63;;
67941;SDS011;54731;42.600;23.476;2023-04-24T03:47:28;12.87;;;6.40;;
67941;SDS011;54731;42.600;23.476;2023-04-24T03:49:53;10.17;;;6.07;;
67941;SDS011;54731;42.600;23.476;2023-04-24T03:52:18;9.23;;;5.87;;
67941;SDS011;54731;42.600;23.476;2023-04-24T03:54:44;10.70;;;6.53;;
67941;SDS011;54731;42.600;23.476;2023-04-24T03:57:09;10.38;;;5.57;;
67941;SDS011;54731;42.600;23.476;2023-04-24T03:59:34;9.43;;;5.77;;
67941;SDS011;54731;42.600;23.476;2023-04-24T04:01:59;9.33;;;5.97;;
67941;SDS011;54731;42.600;23.476;2023-04-24T04:04:25;12.87;;;6.17;;
67941;SDS011;54731;42.600;23.476;2023-04-24T04:06:50;11.53;;;5.90;;
67941;SDS011;54731;42.600;23.476;2023-04-24T04:09:15;9.87;;;6.20;;
67941;SDS011;54731;42.600;23.476;2023-04-24T04:11:41;10.33;;;6.20;;
67941;SDS011;54731;42.600;23.476;2023-04-24T04:14:06;8.97;;;6.10;;
67941;SDS011;54731;42.600;23.476;2023-04-24T04:16:31;9.02;;;6.20;;
67941;SDS011;54731;42.600;23.476;2023-04-24T04:18:57;8.52;;;6.18;;
67941;SDS011;54731;42.600;23.476;2023-04-24T04:21:22;10.70;;;6.17;;
67941;SDS011;54731;42.600;23.476;2023-04-24T04:23:47;7.33;;;5.93;;
67941;SDS011;54731;42.600;23.476;2023-04-24T04:26:13;9.23;;;5.90;;
67941;SDS011;54731;42.600;23.476;2023-04-24T04:28:38;8.63;;;5.10;;
67941;SDS011;54731;42.600;23.476;2023-04-24T04:31:03;8.00;;;5.43;;
67941;SDS011;54731;42.600;23.476;2023-04-24T04:33:29;15.70;;;8.75;;
67941;SDS011;54731;42.600;23.476;2023-04-24T04:35:54;14.52;;;8.13;;
67941;SDS011;54731;42.600;23.476;2023-04-24T04:38:19;15.30;;;8.50;;
67941;SDS011;54731;42.600;23.476;2023-04-24T04:40:45;21.67;;;9.80;;
67941;SDS011;54731;42.600;23.476;2023-04-24T04:43:11;16.80;;;9.63;;
67941;SDS011;54731;42.600;23.476;2023-04-24T04:45:37;18.17;;;8.30;;
67941;SDS011;54731;42.600;23.476;2023-04-24T04:48:02;14.05;;;8.27;;
67941;SDS011;54731;42.600;23.476;2023-04-24T04:50:28;18.23;;;7.50;;
67941;SDS011;54731;42.600;23.476;2023-04-24T04:52:53;11.97;;;7.93;;
67941;SDS011;54731;42.600;23.476;2023-04-24T04:55:18;12.93;;;8.00;;
67941;SDS011;54731;42.600;23.476;2023-04-24T04:57:44;19.73;;;8.20;;
67941;SDS011;54731;42.600;23.476;2023-04-24T05:00:09;13.37;;;9.00;;
67941;SDS011;54731;42.600;23.476;2023-04-24T05:02:35;14.82;;;8.70;;
67941;SDS011;54731;42.600;23.476;2023-04-24T05:05:00;17.57;;;9.60;;
67941;SDS011;54731;42.600;23.476;2023-04-24T05:07:25;15.60;;;9.10;;
67941;SDS011;54731;42.600;23.476;2023-04-24T05:09:50;14.17;;;8.67;;
67941;SDS011;54731;42.600;23.476;2023-04-24T05:12:16;10.90;;;7.90;;
67941;SDS011;54731;42.600;23.476;2023-04-24T05:14:41;13.33;;;8.13;;
67941;SDS011;54731;42.600;23.476;2023-04-24T05:17:06;11.73;;;8.07;;
67941;SDS011;54731;42.600;23.476;2023-04-24T05:19:32;15.70;;;8.30;;
67941;SDS011;54731;42.600;23.476;2023-04-24T05:21:57;17.50;;;9.43;;
67941;SDS011;54731;42.600;23.476;2023-04-24T05:24:22;15.57;;;9.60;;
67941;SDS011;54731;42.600;23.476;2023-04-24T05:26:47;19.63;;;10.45;;
67941;SDS011;54731;42.600;23.476;2023-04-24T05:29:13;13.57;;;8.87;;
67941;SDS011;54731;42.600;23.476;2023-04-24T05:31:38;23.40;;;13.43;;
67941;SDS011;54731;42.600;23.476;2023-04-24T05:34:03;12.77;;;9.67;;
67941;SDS011;54731;42.600;23.476;2023-04-24T05:36:29;16.87;;;10.43;;
67941;SDS011;54731;42.600;23.476;2023-04-24T05:38:54;23.23;;;14.90;;
67941;SDS011;54731;42.600;23.476;2023-04-24T05:41:19;64.10;;;38.93;;
67941;SDS011;54731;42.600;23.476;2023-04-24T05:43:45;25.50;;;15.73;;
67941;SDS011;54731;42.600;23.476;2023-04-24T05:46:11;30.23;;;20.08;;
67941;SDS011;54731;42.600;23.476;2023-04-24T05:48:36;30.67;;;17.98;;
67941;SDS011;54731;42.600;23.476;2023-04-24T05:51:02;26.27;;;14.13;;
67941;SDS011;54731;42.600;23.476;2023-04-24T05:53:27;21.33;;;13.00;;
67941;SDS011;54731;42.600;23.476;2023-04-24T05:55:52;25.60;;;16.17;;
67941;SDS011;54731;42.600;23.476;2023-04-24T05:58:18;48.60;;;31.57;;
67941;SDS011;54731;42.600;23.476;2023-04-24T06:00:43;22.63;;;14.60;;
67941;SDS011;54731;42.600;23.476;2023-04-24T06:03:08;13.40;;;9.13;;
67941;SDS011;54731;42.600;23.476;2023-04-24T06:05:34;13.17;;;8.50;;
67941;SDS011;54731;42.600;23.476;2023-04-24T06:07:59;13.40;;;8.88;;
67941;SDS011;54731;42.600;23.476;2023-04-24T06:10:24;20.03;;;11.77;;
67941;SDS011;54731;42.600;23.476;2023-04-24T06:12:50;12.53;;;7.90;;
67941;SDS011;54731;42.600;23.476;2023-04-24T06:15:15;13.20;;;7.23;;
67941;SDS011;54731;42.600;23.476;2023-04-24T06:17:40;9.03;;;6.63;;
67941;SDS011;54731;42.600;23.476;2023-04-24T06:20:06;14.37;;;7.43;;
67941;SDS011;54731;42.600;23.476;2023-04-24T06:22:31;12.07;;;8.00;;
67941;SDS011;54731;42.600;23.476;2023-04-24T06:24:56;9.50;;;7.27;;
67941;SDS011;54731;42.600;23.476;2023-04-24T06:27:22;11.73;;;7.50;;
67941;SDS011;54731;42.600;23.476;2023-04-24T06:29:47;12.37;;;8.03;;
67941;SDS011;54731;42.600;23.476;2023-04-24T06:32:12;12.87;;;7.77;;
67941;SDS011;54731;42.600;23.476;2023-04-24T06:34:38;12.57;;;7.87;;
67941;SDS011;54731;42.600;23.476;2023-04-24T06:37:03;15.30;;;8.83;;
67941;SDS011;54731;42.600;23.476;2023-04-24T06:39:28;13.07;;;7.90;;
67941;SDS011;54731;42.600;23.476;2023-04-24T06:41:54;16.13;;;7.70;;
67941;SDS011;54731;42.600;23.476;2023-04-24T06:44:20;12.20;;;7.65;;
67941;SDS011;54731;42.600;23.476;2023-04-24T06:46:46;10.67;;;7.90;;
67941;SDS011;54731;42.600;23.476;2023-04-24T06:49:11;15.35;;;7.72;;
67941;SDS011;54731;42.600;23.476;2023-04-24T06:51:36;13.23;;;7.50;;
67941;SDS011;54731;42.600;23.476;2023-04-24T06:54:02;12.43;;;7.73;;
67941;SDS011;54731;42.600;23.476;2023-04-24T06:56:27;14.90;;;8.40;;
67941;SDS011;54731;42.600;23.476;2023-04-24T06:58:52;15.30;;;8.30;;
67941;SDS011;54731;42.600;23.476;2023-04-24T07:01:18;13.43;;;7.73;;
67941;SDS011;54731;42.600;23.476;2023-04-24T07:03:43;10.27;;;7.67;;
67941;SDS011;54731;42.600;23.476;2023-04-24T07:06:09;9.77;;;7.53;;
67941;SDS011;54731;42.600;23.476;2023-04-24T07:08:34;12.88;;;7.82;;
67941;SDS011;54731;42.600;23.476;2023-04-24T07:11:00;16.07;;;7.77;;
67941;SDS011;54731;42.600;23.476;2023-04-24T07:13:25;16.17;;;7.57;;
67941;SDS011;54731;42.600;23.476;2023-04-24T07:15:50;12.10;;;7.37;;
67941;SDS011;54731;42.600;23.476;2023-04-24T07:18:16;12.75;;;8.13;;
67941;SDS011;54731;42.600;23.476;2023-04-24T07:20:41;11.13;;;7.10;;
67941;SDS011;54731;42.600;23.476;2023-04-24T07:23:07;11.80;;;7.47;;
67941;SDS011;54731;42.600;23.476;2023-04-24T07:25:32;12.90;;;7.60;;
67941;SDS011;54731;42.600;23.476;2023-04-24T07:27:58;12.25;;;7.40;;
67941;SDS011;54731;42.600;23.476;2023-04-24T07:30:24;11.70;;;7.30;;
67941;SDS011;54731;42.600;23.476;2023-04-24T07:32:49;12.18;;;7.25;;
67941;SDS011;54731;42.600;23.476;2023-04-24T07:35:14;13.43;;;7.47;;
67941;SDS011;54731;42.600;23.476;2023-04-24T07:37:39;10.73;;;7.57;;
67941;SDS011;54731;42.600;23.476;2023-04-24T07:40:05;11.40;;;7.20;;
67941;SDS011;54731;42.600;23.476;2023-04-24T07:42:31;14.30;;;7.78;;
67941;SDS011;54731;42.600;23.476;2023-04-24T07:44:56;10.73;;;7.20;;
67941;SDS011;54731;42.600;23.476;2023-04-24T07:47:21;14.20;;;7.17;;
67941;SDS011;54731;42.600;23.476;2023-04-24T07:49:47;9.03;;;6.53;;
67941;SDS011;54731;42.600;23.476;2023-04-24T07:52:12;10.57;;;7.37;;
67941;SDS011;54731;42.600;23.476;2023-04-24T07:54:38;11.17;;;6.63;;
67941;SDS011;54731;42.600;23.476;2023-04-24T07:57:03;12.25;;;7.15;;
67941;SDS011;54731;42.600;23.476;2023-04-24T07:59:28;13.93;;;6.03;;
67941;SDS011;54731;42.600;23.476;2023-04-24T08:01:54;7.57;;;5.83;;
67941;SDS011;54731;42.600;23.476;2023-04-24T08:04:19;7.00;;;5.90;;
67941;SDS011;54731;42.600;23.476;2023-04-24T08:06:44;10.37;;;5.40;;
67941;SDS011;54731;42.600;23.476;2023-04-24T08:09:10;7.07;;;5.13;;
67941;SDS011;54731;42.600;23.476;2023-04-24T08:11:35;7.63;;;5.57;;
67941;SDS011;54731;42.600;23.476;2023-04-24T08:14:01;5.25;;;4.75;;
67941;SDS011;54731;42.600;23.476;2023-04-24T08:16:27;5.67;;;4.80;;
67941;SDS011;54731;42.600;23.476;2023-04-24T08:18:52;5.97;;;5.13;;
67941;SDS011;54731;42.600;23.476;2023-04-24T08:21:18;11.00;;;5.07;;
67941;SDS011;54731;42.600;23.476;2023-04-24T08:23:44;7.37;;;5.17;;
67941;SDS011;54731;42.600;23.476;2023-04-24T08:26:10;10.95;;;6.07;;
67941;SDS011;54731;42.600;23.476;2023-04-24T08:28:35;8.67;;;5.00;;
67941;SDS011;54731;42.600;23.476;2023-04-24T08:31:00;8.83;;;5.20;;
67941;SDS011;54731;42.600;23.476;2023-04-24T08:33:26;6.63;;;4.80;;
67941;SDS011;54731;42.600;23.476;2023-04-24T08:35:51;11.40;;;5.43;;
67941;SDS011;54731;42.600;23.476;2023-04-24T08:38:17;9.43;;;5.60;;
67941;SDS011;54731;42.600;23.476;2023-04-24T08:40:42;11.27;;;5.13;;
67941;SDS011;54731;42.600;23.476;2023-04-24T08:43:08;8.45;;;5.20;;
67941;SDS011;54731;42.600;23.476;2023-04-24T08:45:34;9.20;;;5.70;;
67941;SDS011;54731;42.600;23.476;2023-04-24T08:48:00;10.98;;;5.20;;
67941;SDS011;54731;42.600;23.476;2023-04-24T08:50:25;8.43;;;4.68;;
67941;SDS011;54731;42.600;23.476;2023-04-24T08:52:51;9.57;;;5.27;;
67941;SDS011;54731;42.600;23.476;2023-04-24T08:55:16;11.10;;;5.30;;
67941;SDS011;54731;42.600;23.476;2023-04-24T08:57:42;9.73;;;5.17;;
67941;SDS011;54731;42.600;23.476;2023-04-24T09:00:08;10.17;;;5.33;;
67941;SDS011;54731;42.600;23.476;2023-04-24T09:02:34;11.45;;;6.05;;
67941;SDS011;54731;42.600;23.476;2023-04-24T09:04:59;9.07;;;5.07;;
67941;SDS011;54731;42.600;23.476;2023-04-24T09:07:25;9.77;;;5.60;;
67941;SDS011;54731;42.600;23.476;2023-04-24T09:09:53;7.68;;;5.07;;
67941;SDS011;54731;42.600;23.476;2023-04-24T09:12:19;7.47;;;5.20;;
67941;SDS011;54731;42.600;23.476;2023-04-24T09:14:45;7.20;;;5.07;;
67941;SDS011;54731;42.600;23.476;2023-04-24T09:17:11;8.17;;;5.03;;
67941;SDS011;54731;42.600;23.476;2023-04-24T09:19:36;9.85;;;4.97;;
67941;SDS011;54731;42.600;23.476;2023-04-24T09:22:05;7.87;;;4.60;;
67941;SDS011;54731;42.600;23.476;2023-04-24T09:24:33;8.30;;;4.53;;
67941;SDS011;54731;42.600;23.476;2023-04-24T09:26:59;7.32;;;4.47;;
67941;SDS011;54731;42.600;23.476;2023-04-24T09:29:24;11.80;;;4.93;;
67941;SDS011;54731;42.600;23.476;2023-04-24T09:31:50;6.53;;;4.57;;
67941;SDS011;54731;42.600;23.476;2023-04-24T09:34:19;7.80;;;4.40;;
67941;SDS011;54731;42.600;23.476;2023-04-24T09:36:46;4.60;;;3.88;;
67941;SDS011;54731;42.600;23.476;2023-04-24T09:39:12;7.53;;;4.30;;
67941;SDS011;54731;42.600;23.476;2023-04-24T09:44:15;10.05;;;4.60;;
67941;SDS011;54731;42.600;23.476;2023-04-24T09:46:42;6.22;;;4.40;;
67941;SDS011;54731;42.600;23.476;2023-04-24T09:49:12;5.95;;;5.28;;
67941;SDS011;54731;42.600;23.476;2023-04-24T09:51:39;7.97;;;4.38;;
67941;SDS011;54731;42.600;23.476;2023-04-24T09:54:04;7.80;;;4.53;;
67941;SDS011;54731;42.600;23.476;2023-04-24T09:56:39;6.18;;;4.43;;
67941;SDS011;54731;42.600;23.476;2023-04-24T09:59:07;7.13;;;4.32;;
67941;SDS011;54731;42.600;23.476;2023-04-24T10:01:33;8.50;;;4.30;;
67941;SDS011;54731;42.600;23.476;2023-04-24T10:03:58;8.10;;;4.57;;
67941;SDS011;54731;42.600;23.476;2023-04-24T10:06:33;7.33;;;4.20;;
67941;SDS011;54731;42.600;23.476;2023-04-24T10:08:59;7.20;;;4.40;;
67941;SDS011;54731;42.600;23.476;2023-04-24T10:11:26;7.43;;;4.50;;
67941;SDS011;54731;42.600;23.476;2023-04-24T10:13:52;9.23;;;4.40;;
67941;SDS011;54731;42.600;23.476;2023-04-24T10:16:18;8.82;;;4.45;;
67941;SDS011;54731;42.600;23.476;2023-04-24T10:18:46;6.22;;;4.28;;
67941;SDS011;54731;42.600;23.476;2023-04-24T10:21:14;5.93;;;4.22;;
67941;SDS011;54731;42.600;23.476;2023-04-24T10:23:44;13.27;;;4.97;;
67941;SDS011;54731;42.600;23.476;2023-04-24T10:26:10;5.77;;;4.10;;
67941;SDS011;54731;42.600;23.476;2023-04-24T10:28:37;8.00;;;4.38;;
67941;SDS011;54731;42.600;23.476;2023-04-24T10:31:04;6.30;;;4.60;;
67941;SDS011;54731;42.600;23.476;2023-04-24T10:33:29;10.20;;;3.90;;
67941;SDS011;54731;42.600;23.476;2023-04-24T10:35:56;7.05;;;4.00;;
67941;SDS011;54731;42.600;23.476;2023-04-24T10:38:22;5.43;;;4.15;;
67941;SDS011;54731;42.600;23.476;2023-04-24T10:40:50;7.60;;;4.00;;
67941;SDS011;54731;42.600;23.476;2023-04-24T10:43:16;7.65;;;4.07;;
67941;SDS011;54731;42.600;23.476;2023-04-24T10:45:42;8.18;;;4.00;;
67941;SDS011;54731;42.600;23.476;2023-04-24T10:48:28;9.50;;;4.35;;
67941;SDS011;54731;42.600;23.476;2023-04-24T10:50:54;5.72;;;4.07;;
67941;SDS011;54731;42.600;23.476;2023-04-24T10:53:20;6.33;;;3.90;;
67941;SDS011;54731;42.600;23.476;2023-04-24T10:55:50;6.63;;;3.65;;
67941;SDS011;54731;42.600;23.476;2023-04-24T10:58:17;9.48;;;3.95;;
67941;SDS011;54731;42.600;23.476;2023-04-24T11:00:55;4.88;;;3.50;;
67941;SDS011;54731;42.600;23.476;2023-04-24T11:03:32;6.72;;;4.47;;
67941;SDS011;54731;42.600;23.476;2023-04-24T11:05:59;10.68;;;4.65;;
67941;SDS011;54731;42.600;23.476;2023-04-24T11:11:07;5.27;;;3.50;;
67941;SDS011;54731;42.600;23.476;2023-04-24T11:16:29;6.68;;;3.50;;
67941;SDS011;54731;42.600;23.476;2023-04-24T11:21:40;7.93;;;3.30;;
67941;SDS011;54731;42.600;23.476;2023-04-24T11:34:56;6.82;;;4.03;;
67941;SDS011;54731;42.600;23.476;2023-04-24T11:37:24;7.20;;;3.93;;
67941;SDS011;54731;42.600;23.476;2023-04-24T11:39:56;3.78;;;3.45;;
67941;SDS011;54731;42.600;23.476;2023-04-24T11:42:22;7.07;;;4.00;;
67941;SDS011;54731;42.600;23.476;2023-04-24T11:44:49;4.70;;;3.53;;
67941;SDS011;54731;42.600;23.476;2023-04-24T11:47:15;7.07;;;2.25;;
67941;SDS011;54731;42.600;23.476;2023-04-24T11:49:40;4.50;;;2.22;;
67941;SDS011;54731;42.600;23.476;2023-04-24T11:52:05;5.18;;;2.50;;
67941;SDS011;54731;42.600;23.476;2023-04-24T11:54:31;5.17;;;2.37;;
67941;SDS011;54731;42.600;23.476;2023-04-24T11:56:56;6.87;;;3.20;;
67941;SDS011;54731;42.600;23.476;2023-04-24T11:59:22;7.37;;;3.30;;
67941;SDS011;54731;42.600;23.476;2023-04-24T12:01:48;3.70;;;3.00;;
67941;SDS011;54731;42.600;23.476;2023-04-24T12:04:14;4.80;;;2.97;;
67941;SDS011;54731;42.600;23.476;2023-04-24T12:07:00;4.72;;;3.17;;
67941;SDS011;54731;42.600;23.476;2023-04-24T12:09:26;4.80;;;3.60;;
67941;SDS011;54731;42.600;23.476;2023-04-24T12:11:54;5.40;;;3.70;;
67941;SDS011;54731;42.600;23.476;2023-04-24T12:14:21;4.22;;;3.60;;
67941;SDS011;54731;42.600;23.476;2023-04-24T12:16:47;4.13;;;3.73;;
67941;SDS011;54731;42.600;23.476;2023-04-24T12:19:17;4.63;;;3.63;;
67941;SDS011;54731;42.600;23.476;2023-04-24T12:21:45;4.95;;;3.88;;
67941;SDS011;54731;42.600;23.476;2023-04-24T12:24:24;4.78;;;4.25;;
67941;SDS011;54731;42.600;23.476;2023-04-24T12:26:49;3.58;;;3.00;;
67941;SDS011;54731;42.600;23.476;2023-04-24T12:29:19;4.00;;;3.60;;
67941;SDS011;54731;42.600;23.476;2023-04-24T12:31:45;3.90;;;3.05;;
67941;SDS011;54731;42.600;23.476;2023-04-24T12:34:23;6.35;;;3.30;;
67941;SDS011;54731;42.600;23.476;2023-04-24T12:36:49;4.67;;;2.90;;
67941;SDS011;54731;42.600;23.476;2023-04-24T12:39:15;8.38;;;5.22;;
67941;SDS011;54731;42.600;23.476;2023-04-24T12:41:50;7.03;;;4.13;;
67941;SDS011;54731;42.600;23.476;2023-04-24T12:44:42;4.07;;;2.60;;
67941;SDS011;54731;42.600;23.476;2023-04-24T12:47:07;3.92;;;2.70;;
67941;SDS011;54731;42.600;23.476;2023-04-24T12:49:32;8.20;;;2.67;;
67941;SDS011;54731;42.600;23.476;2023-04-24T12:51:58;3.97;;;2.37;;
67941;SDS011;54731;42.600;23.476;2023-04-24T12:54:23;3.27;;;2.80;;
67941;SDS011;54731;42.600;23.476;2023-04-24T12:56:49;3.08;;;2.78;;
67941;SDS011;54731;42.600;23.476;2023-04-24T12:59:14;3.47;;;3.17;;
67941;SDS011;54731;42.600;23.476;2023-04-24T13:01:40;7.00;;;3.53;;
67941;SDS011;54731;42.600;23.476;2023-04-24T13:04:06;7.65;;;3.58;;
67941;SDS011;54731;42.600;23.476;2023-04-24T13:06:31;5.97;;;4.20;;
67941;SDS011;54731;42.600;23.476;2023-04-24T13:08:57;4.30;;;3.77;;
67941;SDS011;54731;42.600;23.476;2023-04-24T13:11:22;5.57;;;4.00;;
67941;SDS011;54731;42.600;23.476;2023-04-24T13:13:47;5.40;;;3.63;;
67941;SDS011;54731;42.600;23.476;2023-04-24T13:16:13;8.67;;;3.60;;
67941;SDS011;54731;42.600;23.476;2023-04-24T13:18:38;5.35;;;3.85;;
67941;SDS011;54731;42.600;23.476;2023-04-24T13:21:03;6.53;;;4.38;;
67941;SDS011;54731;42.600;23.476;2023-04-24T13:23:29;7.40;;;4.43;;
67941;SDS011;54731;42.600;23.476;2023-04-24T13:25:54;5.37;;;3.80;;
67941;SDS011;54731;42.600;23.476;2023-04-24T13:28:19;6.30;;;3.30;;
67941;SDS011;54731;42.600;23.476;2023-04-24T13:30:44;5.93;;;3.53;;
67941;SDS011;54731;42.600;23.476;2023-04-24T13:33:10;5.53;;;3.67;;
67941;SDS011;54731;42.600;23.476;2023-04-24T13:35:35;3.87;;;3.47;;
67941;SDS011;54731;42.600;23.476;2023-04-24T13:38:00;6.33;;;4.00;;
67941;SDS011;54731;42.600;23.476;2023-04-24T13:40:26;4.47;;;3.70;;
67941;SDS011;54731;42.600;23.476;2023-04-24T13:42:52;5.88;;;3.63;;
67941;SDS011;54731;42.600;23.476;2023-04-24T13:45:17;4.83;;;3.63;;
67941;SDS011;54731;42.600;23.476;2023-04-24T13:47:43;5.55;;;3.70;;
67941;SDS011;54731;42.600;23.476;2023-04-24T13:50:08;8.37;;;5.40;;
67941;SDS011;54731;42.600;23.476;2023-04-24T13:52:34;8.15;;;4.90;;
67941;SDS011;54731;42.600;23.476;2023-04-24T13:54:59;15.15;;;9.75;;
67941;SDS011;54731;42.600;23.476;2023-04-24T13:57:28;8.37;;;6.73;;
67941;SDS011;54731;42.600;23.476;2023-04-24T13:59:53;8.68;;;6.65;;
67941;SDS011;54731;42.600;23.476;2023-04-24T14:02:18;10.80;;;7.80;;
67941;SDS011;54731;42.600;23.476;2023-04-24T14:04:44;28.53;;;25.53;;
67941;SDS011;54731;42.600;23.476;2023-04-24T14:07:09;27.77;;;24.80;;
67941;SDS011;54731;42.600;23.476;2023-04-24T14:09:34;19.93;;;17.93;;
67941;SDS011;54731;42.600;23.476;2023-04-24T14:11:59;14.63;;;13.13;;
67941;SDS011;54731;42.600;23.476;2023-04-24T14:14:25;18.93;;;16.03;;
67941;SDS011;54731;42.600;23.476;2023-04-24T14:16:50;27.80;;;19.87;;
67941;SDS011;54731;42.600;23.476;2023-04-24T14:19:15;20.07;;;13.00;;
67941;SDS011;54731;42.600;23.476;2023-04-24T14:21:41;33.87;;;15.63;;
67941;SDS011;54731;42.600;23.476;2023-04-24T14:24:06;9.98;;;5.68;;
67941;SDS011;54731;42.600;23.476;2023-04-24T14:26:32;11.93;;;7.67;;
67941;SDS011;54731;42.600;23.476;2023-04-24T14:28:58;16.80;;;10.07;;
67941;SDS011;54731;42.600;23.476;2023-04-24T14:31:23;71.87;;;40.47;;
67941;SDS011;54731;42.600;23.476;2023-04-24T14:33:49;69.77;;;34.17;;
67941;SDS011;54731;42.600;23.476;2023-04-24T14:36:14;9.97;;;5.97;;
67941;SDS011;54731;42.600;23.476;2023-04-24T14:38:39;8.47;;;6.37;;
67941;SDS011;54731;42.600;23.476;2023-04-24T14:41:04;11.37;;;9.40;;
67941;SDS011;54731;42.600;23.476;2023-04-24T14:43:30;5.87;;;3.80;;